createdAt,value
2019-04-30T00:00:47.003Z,10.23
2019-04-30T00:03:39.203Z,9.80
2019-04-30T00:06:08.114Z,9.63
2019-04-30T00:08:39.093Z,9.33
2019-04-30T00:11:10.854Z,9.20
2019-04-30T00:13:38.226Z,10.67
2019-04-30T00:16:07.069Z,9.97
2019-04-30T00:18:39.558Z,9.70
2019-04-30T00:21:09.938Z,10.17
2019-04-30T00:23:37.082Z,9.70
2019-04-30T00:26:10.265Z,9.47
2019-04-30T00:28:39.412Z,10.07
2019-04-30T00:31:07.594Z,9.37
2019-04-30T00:33:36.445Z,10.60
2019-04-30T00:36:05.862Z,10.63
2019-04-30T00:38:37.869Z,10.03
2019-04-30T00:41:06.946Z,10.37
2019-04-30T00:43:37.794Z,9.63
2019-04-30T00:46:06.895Z,10.43
2019-04-30T00:48:35.767Z,9.40
2019-04-30T00:51:07.546Z,10.03
2019-04-30T00:53:35.937Z,9.17
2019-04-30T00:56:05.698Z,8.80
2019-04-30T00:58:35.681Z,9.83
2019-04-30T01:01:18.196Z,9.57
2019-04-30T01:03:51.999Z,9.40
2019-04-30T01:06:26.876Z,10.10
2019-04-30T01:08:51.656Z,9.67
2019-04-30T01:11:20.447Z,10.10
2019-04-30T01:13:50.977Z,9.10
2019-04-30T01:16:23.581Z,10.40
2019-04-30T01:18:50.463Z,9.40
2019-04-30T01:21:19.254Z,10.20
2019-04-30T01:23:54.524Z,10.83
2019-04-30T01:26:22.858Z,10.40
2019-04-30T01:28:53.680Z,10.23
2019-04-30T01:31:21.476Z,9.83
2019-04-30T01:33:50.546Z,9.07
2019-04-30T01:36:19.772Z,10.07
2019-04-30T01:38:52.437Z,9.47
2019-04-30T01:41:22.017Z,9.47
2019-04-30T01:43:50.222Z,9.60
2019-04-30T01:46:21.011Z,9.07
2019-04-30T01:48:51.950Z,10.47
2019-04-30T01:51:21.769Z,9.90
2019-04-30T01:53:50.902Z,10.03
2019-04-30T01:56:29.318Z,9.97
2019-04-30T01:59:09.098Z,9.57
2019-04-30T02:01:40.571Z,9.43
2019-04-30T02:04:10.018Z,9.77
2019-04-30T02:06:39.219Z,9.97
2019-04-30T02:09:09.125Z,10.30
2019-04-30T02:11:38.859Z,10.23
2019-04-30T02:14:09.020Z,9.73
2019-04-30T02:16:39.535Z,9.80
2019-04-30T02:19:09.138Z,9.80
2019-04-30T02:21:38.545Z,10.00
2019-04-30T02:24:08.964Z,10.77
2019-04-30T02:26:38.523Z,9.37
2019-04-30T02:29:09.174Z,10.17
2019-04-30T02:31:40.572Z,9.77
2019-04-30T02:34:30.324Z,9.50
2019-04-30T02:37:21.093Z,9.83
2019-04-30T02:39:50.378Z,10.80
2019-04-30T02:42:20.545Z,10.27
2019-04-30T02:44:51.965Z,8.67
2019-04-30T02:47:22.708Z,9.60
2019-04-30T02:50:09.858Z,9.40
2019-04-30T02:52:29.339Z,9.23
2019-04-30T02:54:59.408Z,9.13
2019-04-30T02:57:29.972Z,9.13
2019-04-30T03:00:20.205Z,9.80
2019-04-30T03:02:50.264Z,9.80
2019-04-30T03:05:20.208Z,9.70
2019-04-30T03:07:52.969Z,9.37
2019-04-30T03:10:20.127Z,9.53
2019-04-30T03:12:49.886Z,9.80
2019-04-30T03:15:22.693Z,9.10
2019-04-30T03:18:00.583Z,9.70
2019-04-30T03:20:40.031Z,8.93
2019-04-30T03:23:09.831Z,9.80
2019-04-30T03:25:40.511Z,9.30
2019-04-30T03:28:09.838Z,9.17
2019-04-30T03:30:41.958Z,8.93
2019-04-30T03:33:12.652Z,8.90
2019-04-30T03:35:46.782Z,9.37
2019-04-30T03:38:10.487Z,9.33
2019-04-30T03:40:40.513Z,9.23
2019-04-30T03:43:10.343Z,9.47
2019-04-30T03:45:40.388Z,9.47
2019-04-30T03:48:10.244Z,10.10
2019-04-30T03:50:52.492Z,9.63
2019-04-30T03:53:10.469Z,9.73
2019-04-30T03:55:40.155Z,9.07
2019-04-30T03:58:09.507Z,10.07
2019-04-30T04:00:50.232Z,9.37
2019-04-30T04:03:20.152Z,9.90
2019-04-30T04:06:09.407Z,9.00
2019-04-30T04:08:53.427Z,8.37
2019-04-30T04:11:26.046Z,9.27
2019-04-30T04:13:54.831Z,9.00
2019-04-30T04:16:23.611Z,9.63
2019-04-30T04:18:52.450Z,8.27
2019-04-30T04:21:21.226Z,8.83
2019-04-30T04:23:50.282Z,9.30
2019-04-30T04:26:20.214Z,9.50
2019-04-30T04:28:49.914Z,9.03
2019-04-30T04:31:19.468Z,8.50
2019-04-30T04:33:52.322Z,9.07
2019-04-30T04:36:20.034Z,9.10
2019-04-30T04:38:50.763Z,9.00
2019-04-30T04:41:19.884Z,9.73
2019-04-30T04:43:50.387Z,9.43
2019-04-30T04:46:20.622Z,9.40
2019-04-30T04:48:49.619Z,8.30
2019-04-30T04:51:31.276Z,9.60
2019-04-30T04:53:50.009Z,10.73
2019-04-30T04:56:19.307Z,9.50
2019-04-30T04:58:50.158Z,10.17
2019-04-30T05:01:20.380Z,9.93
2019-04-30T05:03:49.783Z,10.53
2019-04-30T05:06:21.727Z,11.97
2019-04-30T05:08:49.358Z,13.07
2019-04-30T05:11:19.251Z,12.70
2019-04-30T05:13:49.033Z,12.93
2019-04-30T05:16:19.049Z,14.20
2019-04-30T05:18:48.776Z,14.27
2019-04-30T05:21:18.779Z,14.20
2019-04-30T05:23:49.266Z,14.30
2019-04-30T05:26:19.122Z,15.50
2019-04-30T05:28:52.516Z,16.27
2019-04-30T05:31:20.987Z,17.13
2019-04-30T05:33:49.102Z,15.80
2019-04-30T05:36:19.179Z,16.40
2019-04-30T05:38:48.824Z,15.20
2019-04-30T05:41:19.258Z,16.60
2019-04-30T05:43:48.837Z,18.23
2019-04-30T05:46:19.667Z,18.70
2019-04-30T05:48:49.728Z,18.40
2019-04-30T05:51:21.152Z,18.00
2019-04-30T05:53:49.331Z,17.23
2019-04-30T05:56:19.332Z,19.07
2019-04-30T05:58:49.440Z,18.60
2019-04-30T06:01:19.652Z,19.00
2019-04-30T06:03:48.675Z,18.47
2019-04-30T06:06:19.288Z,18.03
2019-04-30T06:09:14.473Z,20.07
2019-04-30T06:12:11.382Z,20.70
2019-04-30T06:14:51.794Z,18.30
2019-04-30T06:17:21.046Z,19.93
2019-04-30T06:19:51.568Z,18.57
2019-04-30T06:22:20.858Z,18.93
2019-04-30T06:24:49.711Z,18.37
2019-04-30T06:27:19.598Z,19.90
2019-04-30T06:29:49.108Z,18.53
2019-04-30T06:32:18.656Z,17.40
2019-04-30T06:34:49.831Z,18.23
2019-04-30T06:37:19.579Z,17.10
2019-04-30T06:39:49.979Z,16.57
2019-04-30T06:42:19.591Z,16.70
2019-04-30T06:44:49.586Z,17.07
2019-04-30T06:47:22.766Z,17.93
2019-04-30T06:49:49.470Z,18.93
2019-04-30T06:52:23.283Z,18.90
2019-04-30T06:54:49.863Z,17.63
2019-04-30T06:57:19.896Z,18.90
2019-04-30T06:59:51.289Z,18.57
2019-04-30T07:02:19.814Z,18.87
2019-04-30T07:04:49.323Z,20.97
2019-04-30T07:07:22.879Z,22.77
2019-04-30T07:10:00.977Z,20.83
2019-04-30T07:12:42.115Z,19.57
2019-04-30T07:15:13.555Z,19.13
2019-04-30T07:17:41.939Z,21.93
2019-04-30T07:20:10.974Z,23.00
2019-04-30T07:22:48.903Z,22.23
2019-04-30T07:25:10.406Z,25.27
2019-04-30T07:27:40.269Z,28.33
2019-04-30T07:30:10.116Z,29.60
2019-04-30T07:32:39.114Z,27.87
2019-04-30T07:35:09.516Z,28.53
2019-04-30T07:37:39.411Z,28.23
2019-04-30T07:40:09.282Z,25.40
2019-04-30T07:42:44.644Z,26.70
2019-04-30T07:45:09.785Z,31.33
2019-04-30T07:47:39.748Z,32.07
2019-04-30T07:50:10.722Z,30.33
2019-04-30T07:52:58.062Z,29.17
2019-04-30T07:55:10.758Z,31.13
2019-04-30T07:57:40.427Z,29.27
2019-04-30T08:00:10.249Z,31.30
2019-04-30T08:02:44.390Z,29.47
2019-04-30T08:05:23.011Z,29.67
2019-04-30T08:07:51.856Z,31.70
2019-04-30T08:10:20.684Z,31.90
2019-04-30T08:12:51.068Z,25.63
2019-04-30T08:15:20.179Z,27.87
2019-04-30T08:18:02.203Z,30.10
2019-04-30T08:20:19.880Z,28.60
2019-04-30T08:22:49.537Z,31.10
2019-04-30T08:25:19.780Z,31.57
2019-04-30T08:27:49.431Z,31.43
2019-04-30T08:30:26.224Z,25.70
2019-04-30T08:32:49.978Z,24.27
2019-04-30T08:35:19.832Z,26.73
2019-04-30T08:37:49.668Z,20.60
2019-04-30T08:40:19.142Z,18.97
2019-04-30T08:42:49.572Z,19.90
2019-04-30T08:45:19.674Z,23.00
2019-04-30T08:47:49.395Z,21.87
2019-04-30T08:50:20.105Z,21.77
2019-04-30T08:52:50.208Z,20.20
2019-04-30T08:55:22.354Z,20.73
2019-04-30T08:57:50.171Z,20.90
2019-04-30T09:00:20.314Z,20.73
2019-04-30T09:02:49.345Z,22.70
2019-04-30T09:05:28.668Z,22.80
2019-04-30T09:07:59.722Z,23.87
2019-04-30T09:10:29.398Z,26.33
2019-04-30T09:12:59.756Z,26.93
2019-04-30T09:15:29.448Z,26.47
2019-04-30T09:18:03.785Z,22.63
2019-04-30T09:20:29.268Z,23.13
2019-04-30T09:22:59.518Z,24.33
2019-04-30T09:25:29.195Z,25.47
2019-04-30T09:27:58.813Z,26.00
2019-04-30T09:30:29.812Z,25.43
2019-04-30T09:32:59.523Z,26.13
2019-04-30T09:35:31.778Z,27.00
2019-04-30T09:38:01.876Z,24.80
2019-04-30T09:40:32.204Z,24.30
2019-04-30T09:43:00.743Z,25.73
2019-04-30T09:45:29.799Z,23.70
2019-04-30T09:47:59.335Z,25.10
2019-04-30T09:50:29.234Z,26.63
2019-04-30T09:53:00.322Z,27.53
2019-04-30T09:55:29.483Z,26.03
2019-04-30T09:57:58.920Z,24.70
2019-04-30T10:00:29.502Z,25.80
2019-04-30T10:02:59.904Z,24.47
2019-04-30T10:05:29.367Z,25.90
2019-04-30T10:07:59.410Z,26.90
2019-04-30T10:10:34.257Z,25.13
2019-04-30T10:13:03.300Z,25.10
2019-04-30T10:15:39.874Z,27.43
2019-04-30T10:18:09.254Z,27.40
2019-04-30T10:20:42.910Z,26.87
2019-04-30T10:23:11.697Z,28.87
2019-04-30T10:25:41.445Z,25.60
2019-04-30T10:28:10.332Z,25.50
2019-04-30T10:30:39.448Z,24.50
2019-04-30T10:33:10.040Z,26.73
2019-04-30T10:35:39.492Z,24.47
2019-04-30T10:38:09.854Z,24.63
2019-04-30T10:40:39.255Z,25.33
2019-04-30T10:43:08.960Z,26.43
2019-04-30T10:45:39.065Z,26.37
2019-04-30T10:48:08.233Z,28.23
2019-04-30T10:50:40.783Z,28.30
2019-04-30T10:53:09.174Z,27.23
2019-04-30T10:55:38.755Z,27.83
2019-04-30T10:58:08.210Z,28.03
2019-04-30T11:00:39.158Z,28.37
2019-04-30T11:03:19.164Z,26.13
2019-04-30T11:05:41.341Z,24.13
2019-04-30T11:08:10.700Z,27.03
2019-04-30T11:10:39.989Z,24.20
2019-04-30T11:13:09.339Z,26.70
2019-04-30T11:15:39.464Z,22.93
2019-04-30T11:18:08.786Z,23.63
2019-04-30T11:20:39.470Z,24.47
2019-04-30T11:23:14.613Z,24.17
2019-04-30T11:25:41.254Z,22.33
2019-04-30T11:28:10.533Z,23.53
2019-04-30T11:30:40.143Z,24.43
2019-04-30T11:33:09.259Z,23.93
2019-04-30T11:35:39.459Z,23.87
2019-04-30T11:38:08.464Z,24.03
2019-04-30T11:40:39.904Z,23.57
2019-04-30T11:43:08.662Z,22.37
2019-04-30T11:46:19.938Z,24.57
2019-04-30T11:48:49.099Z,25.57
2019-04-30T11:51:19.388Z,23.07
2019-04-30T11:53:49.018Z,24.07
2019-04-30T11:56:18.003Z,25.30
2019-04-30T11:58:48.796Z,24.83
2019-04-30T12:01:19.554Z,25.60
2019-04-30T12:03:49.692Z,24.90
2019-04-30T12:06:19.074Z,24.60
2019-04-30T12:09:10.966Z,25.37
2019-04-30T12:11:40.308Z,23.90
2019-04-30T12:14:09.518Z,24.17
2019-04-30T12:16:39.606Z,24.87
2019-04-30T12:19:09.043Z,24.57
2019-04-30T12:21:38.191Z,23.87
2019-04-30T12:24:07.931Z,24.23
2019-04-30T12:26:38.811Z,24.67
2019-04-30T12:29:08.970Z,25.73
2019-04-30T12:31:38.167Z,28.37
2019-04-30T12:34:07.062Z,24.73
2019-04-30T12:36:35.947Z,23.93
2019-04-30T12:39:06.426Z,25.27
2019-04-30T12:41:35.399Z,26.20
2019-04-30T12:44:04.462Z,24.10
2019-04-30T12:46:33.684Z,26.20
2019-04-30T12:49:10.228Z,27.67
2019-04-30T12:51:58.744Z,26.37
2019-04-30T12:54:39.003Z,25.93
2019-04-30T12:57:12.790Z,26.27
2019-04-30T12:59:42.468Z,25.47
2019-04-30T13:02:11.672Z,24.83
2019-04-30T13:04:40.554Z,24.80
2019-04-30T13:07:10.679Z,24.70
2019-04-30T13:09:40.790Z,25.47
2019-04-30T13:12:11.055Z,27.77
2019-04-30T13:14:51.527Z,26.57
2019-04-30T13:17:11.253Z,29.17
2019-04-30T13:19:40.349Z,30.03
2019-04-30T13:22:11.365Z,31.20
2019-04-30T13:24:40.462Z,32.07
2019-04-30T13:27:09.654Z,30.83
2019-04-30T13:29:46.978Z,30.70
2019-04-30T13:32:27.310Z,31.27
2019-04-30T13:35:01.023Z,28.83
2019-04-30T13:37:39.006Z,31.43
2019-04-30T13:40:16.220Z,32.27
2019-04-30T13:42:48.791Z,29.63
2019-04-30T13:45:18.688Z,30.43
2019-04-30T13:47:48.894Z,31.47
2019-04-30T13:50:19.721Z,29.90
2019-04-30T13:52:48.906Z,31.60
2019-04-30T13:55:19.221Z,32.67
2019-04-30T13:57:48.516Z,29.77
2019-04-30T14:00:22.258Z,30.97
2019-04-30T14:03:00.601Z,32.10
2019-04-30T14:05:28.026Z,31.20
2019-04-30T14:08:13.452Z,30.03
2019-04-30T14:10:44.360Z,32.23
2019-04-30T14:13:13.686Z,32.73
2019-04-30T14:15:43.090Z,29.17
2019-04-30T14:18:12.223Z,28.93
2019-04-30T14:20:41.098Z,28.57
2019-04-30T14:23:10.713Z,28.00
2019-04-30T14:25:39.722Z,28.80
2019-04-30T14:28:09.422Z,29.90
2019-04-30T14:30:39.323Z,29.77
2019-04-30T14:33:09.555Z,28.93
2019-04-30T14:35:38.826Z,28.30
2019-04-30T14:38:09.052Z,29.40
2019-04-30T14:40:40.474Z,28.70
2019-04-30T14:43:19.737Z,30.77
2019-04-30T14:46:06.071Z,32.50
2019-04-30T14:48:41.387Z,30.57
2019-04-30T14:51:11.075Z,29.63
2019-04-30T14:53:48.873Z,28.40
2019-04-30T14:56:32.279Z,28.70
2019-04-30T14:59:18.791Z,27.77
2019-04-30T15:01:59.153Z,27.40
2019-04-30T15:04:29.090Z,29.10
2019-04-30T15:06:58.813Z,28.40
2019-04-30T15:09:28.003Z,29.17
2019-04-30T15:11:58.610Z,28.63
2019-04-30T15:14:28.134Z,29.00
2019-04-30T15:16:57.713Z,28.20
2019-04-30T15:19:26.937Z,27.73
2019-04-30T15:21:55.791Z,26.73
2019-04-30T15:24:31.370Z,28.33
2019-04-30T15:27:00.300Z,28.33
2019-04-30T15:29:29.196Z,27.47
2019-04-30T15:31:59.303Z,30.87
2019-04-30T15:34:29.319Z,29.17
2019-04-30T15:36:59.239Z,30.97
2019-04-30T15:39:39.491Z,27.53
2019-04-30T15:42:08.939Z,29.00
2019-04-30T15:44:45.255Z,29.37
2019-04-30T15:47:09.328Z,28.50
2019-04-30T15:49:38.430Z,30.40
2019-04-30T15:52:10.621Z,28.73
2019-04-30T15:54:39.281Z,27.73
2019-04-30T15:57:09.001Z,28.83
2019-04-30T15:59:40.377Z,27.80
2019-04-30T16:02:28.726Z,27.67
2019-04-30T16:05:16.603Z,26.83
2019-04-30T16:07:58.758Z,28.03
2019-04-30T16:10:52.879Z,27.10
2019-04-30T16:13:24.208Z,27.87
2019-04-30T16:15:53.324Z,28.67
2019-04-30T16:18:22.723Z,27.00
2019-04-30T16:20:51.759Z,28.10
2019-04-30T16:23:20.534Z,28.47
2019-04-30T16:25:49.324Z,28.10
2019-04-30T16:28:19.583Z,28.87
2019-04-30T16:30:48.580Z,28.00
2019-04-30T16:33:19.365Z,29.23
2019-04-30T16:35:50.497Z,27.90
2019-04-30T16:38:20.897Z,27.80
2019-04-30T16:40:49.706Z,26.80
2019-04-30T16:43:20.336Z,26.67
2019-04-30T16:45:49.594Z,27.93
2019-04-30T16:48:19.328Z,26.33
2019-04-30T16:50:51.119Z,27.37
2019-04-30T16:53:19.391Z,26.37
2019-04-30T16:55:50.527Z,26.43
2019-04-30T16:58:19.728Z,26.97
2019-04-30T17:00:49.498Z,25.63
2019-04-30T17:03:34.546Z,26.67
2019-04-30T17:06:12.802Z,25.90
2019-04-30T17:08:49.448Z,26.23
2019-04-30T17:11:38.662Z,25.67
2019-04-30T17:14:11.066Z,24.53
2019-04-30T17:16:40.182Z,25.63
2019-04-30T17:19:09.307Z,25.23
2019-04-30T17:21:38.114Z,24.77
2019-04-30T17:24:08.804Z,24.13
2019-04-30T17:26:39.195Z,23.97
2019-04-30T17:29:09.628Z,23.67
2019-04-30T17:31:38.795Z,24.13
2019-04-30T17:34:07.958Z,22.53
2019-04-30T17:36:36.758Z,23.30
2019-04-30T17:39:10.263Z,23.93
2019-04-30T17:41:39.376Z,24.57
2019-04-30T17:44:08.855Z,22.80
2019-04-30T17:46:38.563Z,23.60
2019-04-30T17:49:07.421Z,22.83
2019-04-30T17:51:36.210Z,23.90
2019-04-30T17:54:14.775Z,22.53
2019-04-30T17:56:44.754Z,23.00
2019-04-30T17:59:13.941Z,24.03
2019-04-30T18:01:47.063Z,23.37
2019-04-30T18:04:16.194Z,24.27
2019-04-30T18:06:44.982Z,23.30
2019-04-30T18:09:14.351Z,23.43
2019-04-30T18:11:43.453Z,23.90
2019-04-30T18:14:12.754Z,25.23
2019-04-30T18:16:41.875Z,25.17
2019-04-30T18:19:24.454Z,25.40
2019-04-30T18:21:59.676Z,23.87
2019-04-30T18:24:37.022Z,23.13
2019-04-30T18:27:45.356Z,21.17
2019-04-30T18:30:07.268Z,23.00
2019-04-30T18:32:36.144Z,22.07
2019-04-30T18:35:05.447Z,22.67
2019-04-30T18:37:34.516Z,23.10
2019-04-30T18:40:03.572Z,22.03
2019-04-30T18:42:32.606Z,22.30
2019-04-30T18:45:01.721Z,21.70
2019-04-30T18:47:30.517Z,23.80
2019-04-30T18:49:59.940Z,22.60
2019-04-30T18:52:28.775Z,22.30
2019-04-30T18:54:59.478Z,22.80
2019-04-30T18:57:28.464Z,23.47
2019-04-30T18:59:59.157Z,21.53
2019-04-30T19:02:27.874Z,22.33
2019-04-30T19:04:57.015Z,23.53
2019-04-30T19:07:31.250Z,22.50
2019-04-30T19:10:22.413Z,21.63
2019-04-30T19:13:19.594Z,20.87
2019-04-30T19:16:19.803Z,21.73
2019-04-30T19:19:00.990Z,21.50
2019-04-30T19:21:30.195Z,21.43
2019-04-30T19:23:59.335Z,21.77
2019-04-30T19:26:29.270Z,20.53
2019-04-30T19:28:58.334Z,21.40
2019-04-30T19:31:29.490Z,21.03
2019-04-30T19:33:58.886Z,20.97
2019-04-30T19:36:37.361Z,19.57
2019-04-30T19:39:02.470Z,18.93
2019-04-30T19:41:31.258Z,19.30
2019-04-30T19:44:00.128Z,19.17
2019-04-30T19:46:29.487Z,20.30
2019-04-30T19:49:00.086Z,19.37
2019-04-30T19:51:29.666Z,18.60
2019-04-30T19:53:59.873Z,17.90
2019-04-30T19:56:30.305Z,17.80
2019-04-30T19:59:04.803Z,18.77
2019-04-30T20:01:30.475Z,18.53
2019-04-30T20:03:59.548Z,18.33
2019-04-30T20:06:28.757Z,18.17
2019-04-30T20:08:59.041Z,18.10
2019-04-30T20:11:28.158Z,17.30
2019-04-30T20:13:56.934Z,18.33
2019-04-30T20:16:25.973Z,17.87
2019-04-30T20:18:54.755Z,17.20
2019-04-30T20:21:28.681Z,17.70
2019-04-30T20:23:55.511Z,18.77
2019-04-30T20:26:24.698Z,18.13
2019-04-30T20:28:53.759Z,18.00
2019-04-30T20:31:22.534Z,17.53
2019-04-30T20:33:53.669Z,17.20
2019-04-30T20:36:22.090Z,17.90
2019-04-30T20:39:15.942Z,17.60
2019-04-30T20:41:45.210Z,16.67
2019-04-30T20:44:14.112Z,17.37
2019-04-30T20:46:42.885Z,17.50
2019-04-30T20:49:11.671Z,18.00
2019-04-30T20:51:52.716Z,17.30
2019-04-30T20:54:11.279Z,17.10
2019-04-30T20:56:40.080Z,17.63
2019-04-30T20:59:10.791Z,18.23
2019-04-30T21:01:39.558Z,16.37
2019-04-30T21:04:08.435Z,18.00
2019-04-30T21:06:37.205Z,17.30
2019-04-30T21:09:06.973Z,16.40
2019-04-30T21:11:35.748Z,16.97
2019-04-30T21:14:04.782Z,17.37
2019-04-30T21:16:33.559Z,16.23
2019-04-30T21:19:02.442Z,17.57
2019-04-30T21:21:31.222Z,17.23
2019-04-30T21:23:59.996Z,15.77
2019-04-30T21:26:29.106Z,16.70
2019-04-30T21:29:10.684Z,17.40
2019-04-30T21:31:40.498Z,15.70
2019-04-30T21:34:29.338Z,16.50
2019-04-30T21:36:59.645Z,16.40
2019-04-30T21:39:29.095Z,16.17
2019-04-30T21:41:59.465Z,17.43
2019-04-30T21:44:29.098Z,16.03
2019-04-30T21:46:58.318Z,17.47
2019-04-30T21:49:27.438Z,17.23
2019-04-30T21:51:56.220Z,17.17
2019-04-30T21:54:25.015Z,17.47
2019-04-30T21:56:54.051Z,16.70
2019-04-30T21:59:24.422Z,17.03
2019-04-30T22:01:53.927Z,17.37
2019-04-30T22:04:22.710Z,16.90
2019-04-30T22:06:51.902Z,18.90
2019-04-30T22:09:21.235Z,17.37
2019-04-30T22:11:50.126Z,17.53
2019-04-30T22:14:19.396Z,18.80
2019-04-30T22:16:49.412Z,16.97
2019-04-30T22:19:18.385Z,16.90
2019-04-30T22:21:49.483Z,17.63
2019-04-30T22:24:18.036Z,18.77
2019-04-30T22:26:46.818Z,18.03
2019-04-30T22:29:15.597Z,17.67
2019-04-30T22:31:44.704Z,17.53
2019-04-30T22:34:13.918Z,18.07
2019-04-30T22:36:46.250Z,18.03
2019-04-30T22:39:52.552Z,18.43
2019-04-30T22:42:39.981Z,17.97
2019-04-30T22:45:41.031Z,18.97
2019-04-30T22:48:10.110Z,18.10
2019-04-30T22:50:38.893Z,19.70
2019-04-30T22:53:07.674Z,19.50
2019-04-30T22:55:36.574Z,19.40
2019-04-30T22:58:05.387Z,19.83
2019-04-30T23:00:45.310Z,20.40
2019-04-30T23:03:30.422Z,19.93
2019-04-30T23:05:59.772Z,20.67
2019-04-30T23:08:28.566Z,20.07
2019-04-30T23:10:57.860Z,20.90
2019-04-30T23:13:26.954Z,21.80
2019-04-30T23:15:55.955Z,19.53
2019-04-30T23:18:24.800Z,20.97
2019-04-30T23:20:53.582Z,21.37
2019-04-30T23:23:22.370Z,21.33
2019-04-30T23:25:51.398Z,21.83
2019-04-30T23:28:20.811Z,22.80
2019-04-30T23:30:49.610Z,21.93
2019-04-30T23:33:18.390Z,22.37
2019-04-30T23:35:47.206Z,23.80
2019-04-30T23:38:15.991Z,23.83
2019-04-30T23:40:50.501Z,22.80
2019-04-30T23:43:20.048Z,24.23
2019-04-30T23:45:49.102Z,24.53
2019-04-30T23:48:18.285Z,23.93
2019-04-30T23:50:47.374Z,23.40
2019-04-30T23:53:16.470Z,23.53
2019-04-30T23:55:45.333Z,23.53
2019-04-30T23:58:14.378Z,23.83
